sensor_id;sensor_type;location;lat;lon;timestamp;pressure;altitude;pressure_sealevel;temperature
18704;BMP180;9481;48.796;9.210;2023-01-15T00:01:39;95409.00;;;14.90
18704;BMP180;9481;48.796;9.210;2023-01-15T00:04:06;95390.00;;;15.00
18704;BMP180;9481;48.796;9.210;2023-01-15T00:06:38;95391.00;;;14.90
18704;BMP180;9481;48.796;9.210;2023-01-15T00:09:06;95390.00;;;14.90
18704;BMP180;9481;48.796;9.210;2023-01-15T00:11:32;95371.00;;;14.90
18704;BMP180;9481;48.796;9.210;2023-01-15T00:13:58;95377.00;;;15.00
18704;BMP180;9481;48.796;9.210;2023-01-15T00:16:26;95365.00;;;15.00
18704;BMP180;9481;48.796;9.210;2023-01-15T00:18:58;95366.00;;;15.00
18704;BMP180;9481;48.796;9.210;2023-01-15T00:21:27;95362.00;;;15.00
18704;BMP180;9481;48.796;9.210;2023-01-15T00:23:53;95368.00;;;15.00
18704;BMP180;9481;48.796;9.210;2023-01-15T00:26:38;95350.00;;;14.90
18704;BMP180;9481;48.796;9.210;2023-01-15T00:29:24;95351.00;;;14.90
18704;BMP180;9481;48.796;9.210;2023-01-15T00:31:59;95358.00;;;14.90
18704;BMP180;9481;48.796;9.210;2023-01-15T00:34:26;95352.00;;;14.90
18704;BMP180;9481;48.796;9.210;2023-01-15T00:36:53;95353.00;;;14.90
18704;BMP180;9481;48.796;9.210;2023-01-15T00:39:19;95345.00;;;14.90
18704;BMP180;9481;48.796;9.210;2023-01-15T00:41:46;95334.00;;;15.00
18704;BMP180;9481;48.796;9.210;2023-01-15T00:44:12;95333.00;;;15.00
18704;BMP180;9481;48.796;9.210;2023-01-15T00:46:37;95327.00;;;15.00
18704;BMP180;9481;48.796;9.210;2023-01-15T00:49:04;95324.00;;;15.00
18704;BMP180;9481;48.796;9.210;2023-01-15T00:51:29;95320.00;;;15.00
18704;BMP180;9481;48.796;9.210;2023-01-15T00:53:55;95310.00;;;15.00
18704;BMP180;9481;48.796;9.210;2023-01-15T00:56:21;95308.00;;;15.00
18704;BMP180;9481;48.796;9.210;2023-01-15T00:58:46;95301.00;;;15.00
18704;BMP180;9481;48.796;9.210;2023-01-15T01:01:13;95294.00;;;15.10
18704;BMP180;9481;48.796;9.210;2023-01-15T01:03:39;95293.00;;;15.00
18704;BMP180;9481;48.796;9.210;2023-01-15T01:06:05;95293.00;;;15.10
18704;BMP180;9481;48.796;9.210;2023-01-15T01:08:32;95283.00;;;15.00
18704;BMP180;9481;48.796;9.210;2023-01-15T01:11:06;95284.00;;;15.10
18704;BMP180;9481;48.796;9.210;2023-01-15T01:13:34;95274.00;;;15.10
18704;BMP180;9481;48.796;9.210;2023-01-15T01:16:01;95291.00;;;15.10
18704;BMP180;9481;48.796;9.210;2023-01-15T01:18:27;95265.00;;;15.10
18704;BMP180;9481;48.796;9.210;2023-01-15T01:20:53;95286.00;;;15.10
18704;BMP180;9481;48.796;9.210;2023-01-15T01:23:19;95280.00;;;15.10
18704;BMP180;9481;48.796;9.210;2023-01-15T01:25:45;95281.00;;;15.10
18704;BMP180;9481;48.796;9.210;2023-01-15T01:28:10;95272.00;;;15.10
18704;BMP180;9481;48.796;9.210;2023-01-15T01:30:39;95281.00;;;15.10
18704;BMP180;9481;48.796;9.210;2023-01-15T01:33:06;95261.00;;;15.10
18704;BMP180;9481;48.796;9.210;2023-01-15T01:35:32;95275.00;;;15.10
18704;BMP180;9481;48.796;9.210;2023-01-15T01:37:57;95287.00;;;15.10
18704;BMP180;9481;48.796;9.210;2023-01-15T01:40:23;95285.00;;;15.20
18704;BMP180;9481;48.796;9.210;2023-01-15T01:42:49;95293.00;;;15.20
18704;BMP180;9481;48.796;9.210;2023-01-15T01:45:31;95289.00;;;15.20
18704;BMP180;9481;48.796;9.210;2023-01-15T01:48:02;95276.00;;;15.10
18704;BMP180;9481;48.796;9.210;2023-01-15T01:50:31;95264.00;;;15.20
18704;BMP180;9481;48.796;9.210;2023-01-15T01:53:07;95271.00;;;15.20
18704;BMP180;9481;48.796;9.210;2023-01-15T01:55:35;95258.00;;;15.20
18704;BMP180;9481;48.796;9.210;2023-01-15T01:58:05;95256.00;;;15.20
18704;BMP180;9481;48.796;9.210;2023-01-15T02:00:34;95257.00;;;15.20
18704;BMP180;9481;48.796;9.210;2023-01-15T02:03:04;95245.00;;;15.20
18704;BMP180;9481;48.796;9.210;2023-01-15T02:05:37;95257.00;;;15.20
18704;BMP180;9481;48.796;9.210;2023-01-15T02:08:04;95257.00;;;15.20
18704;BMP180;9481;48.796;9.210;2023-01-15T02:10:30;95247.00;;;15.20
18704;BMP180;9481;48.796;9.210;2023-01-15T02:13:15;95246.00;;;15.20
18704;BMP180;9481;48.796;9.210;2023-01-15T02:15:51;95237.00;;;15.20
18704;BMP180;9481;48.796;9.210;2023-01-15T02:18:24;95238.00;;;15.30
18704;BMP180;9481;48.796;9.210;2023-01-15T02:21:00;95229.00;;;15.20
18704;BMP180;9481;48.796;9.210;2023-01-15T02:26:49;95226.00;;;15.20
18704;BMP180;9481;48.796;9.210;2023-01-15T02:32:07;95233.00;;;15.20
18704;BMP180;9481;48.796;9.210;2023-01-15T02:34:37;95221.00;;;15.20
18704;BMP180;9481;48.796;9.210;2023-01-15T02:37:15;95219.00;;;15.20
18704;BMP180;9481;48.796;9.210;2023-01-15T02:39:44;95215.00;;;15.20
18704;BMP180;9481;48.796;9.210;2023-01-15T02:42:13;95216.00;;;15.20
18704;BMP180;9481;48.796;9.210;2023-01-15T02:44:46;95219.00;;;15.20
18704;BMP180;9481;48.796;9.210;2023-01-15T02:47:13;95213.00;;;15.20
18704;BMP180;9481;48.796;9.210;2023-01-15T02:49:42;95216.00;;;15.20
18704;BMP180;9481;48.796;9.210;2023-01-15T02:52:17;95219.00;;;15.20
18704;BMP180;9481;48.796;9.210;2023-01-15T02:54:53;95210.00;;;15.30
18704;BMP180;9481;48.796;9.210;2023-01-15T02:57:21;95209.00;;;15.30
18704;BMP180;9481;48.796;9.210;2023-01-15T02:59:51;95216.00;;;15.30
18704;BMP180;9481;48.796;9.210;2023-01-15T03:02:22;95214.00;;;15.30
18704;BMP180;9481;48.796;9.210;2023-01-15T03:05:01;95201.00;;;15.30
18704;BMP180;9481;48.796;9.210;2023-01-15T03:07:53;95210.00;;;15.30
18704;BMP180;9481;48.796;9.210;2023-01-15T03:11:02;95208.00;;;15.30
18704;BMP180;9481;48.796;9.210;2023-01-15T03:14:13;95202.00;;;15.30
18704;BMP180;9481;48.796;9.210;2023-01-15T03:17:19;95203.00;;;15.20
18704;BMP180;9481;48.796;9.210;2023-01-15T03:19:57;95193.00;;;15.30
18704;BMP180;9481;48.796;9.210;2023-01-15T03:22:36;95189.00;;;15.30
18704;BMP180;9481;48.796;9.210;2023-01-15T03:25:10;95188.00;;;15.30
18704;BMP180;9481;48.796;9.210;2023-01-15T03:27:37;95187.00;;;15.40
18704;BMP180;9481;48.796;9.210;2023-01-15T03:30:17;95181.00;;;15.30
18704;BMP180;9481;48.796;9.210;2023-01-15T03:32:43;95188.00;;;15.40
18704;BMP180;9481;48.796;9.210;2023-01-15T03:38:37;95180.00;;;15.30
18704;BMP180;9481;48.796;9.210;2023-01-15T03:41:28;95176.00;;;15.30
18704;BMP180;9481;48.796;9.210;2023-01-15T03:44:17;95175.00;;;15.30
18704;BMP180;9481;48.796;9.210;2023-01-15T03:50:17;95175.00;;;15.30
18704;BMP180;9481;48.796;9.210;2023-01-15T03:56:13;95180.00;;;15.30
18704;BMP180;9481;48.796;9.210;2023-01-15T03:58:58;95165.00;;;15.30
18704;BMP180;9481;48.796;9.210;2023-01-15T04:01:36;95171.00;;;15.30
18704;BMP180;9481;48.796;9.210;2023-01-15T04:04:04;95175.00;;;15.40
18704;BMP180;9481;48.796;9.210;2023-01-15T04:06:35;95178.00;;;15.40
18704;BMP180;9481;48.796;9.210;2023-01-15T04:09:05;95171.00;;;15.40
18704;BMP180;9481;48.796;9.210;2023-01-15T04:11:33;95155.00;;;15.40
18704;BMP180;9481;48.796;9.210;2023-01-15T04:13:58;95160.00;;;15.40
18704;BMP180;9481;48.796;9.210;2023-01-15T04:16:30;95150.00;;;15.40
18704;BMP180;9481;48.796;9.210;2023-01-15T04:18:56;95151.00;;;15.40
18704;BMP180;9481;48.796;9.210;2023-01-15T04:21:22;95149.00;;;15.40
18704;BMP180;9481;48.796;9.210;2023-01-15T04:23:48;95145.00;;;15.40
18704;BMP180;9481;48.796;9.210;2023-01-15T04:26:14;95131.00;;;15.40
18704;BMP180;9481;48.796;9.210;2023-01-15T04:28:40;95135.00;;;15.40
18704;BMP180;9481;48.796;9.210;2023-01-15T04:31:06;95126.00;;;15.40
18704;BMP180;9481;48.796;9.210;2023-01-15T04:33:32;95126.00;;;15.40
18704;BMP180;9481;48.796;9.210;2023-01-15T04:36:00;95124.00;;;15.40
18704;BMP180;9481;48.796;9.210;2023-01-15T04:38:26;95135.00;;;15.40
18704;BMP180;9481;48.796;9.210;2023-01-15T04:40:52;95125.00;;;15.40
18704;BMP180;9481;48.796;9.210;2023-01-15T04:43:36;95143.00;;;15.40
18704;BMP180;9481;48.796;9.210;2023-01-15T04:46:24;95140.00;;;15.40
18704;BMP180;9481;48.796;9.210;2023-01-15T04:48:51;95119.00;;;15.40
18704;BMP180;9481;48.796;9.210;2023-01-15T04:51:16;95136.00;;;15.40
18704;BMP180;9481;48.796;9.210;2023-01-15T04:53:42;95139.00;;;15.40
18704;BMP180;9481;48.796;9.210;2023-01-15T04:56:08;95120.00;;;15.40
18704;BMP180;9481;48.796;9.210;2023-01-15T04:58:34;95131.00;;;15.40
18704;BMP180;9481;48.796;9.210;2023-01-15T05:01:00;95123.00;;;15.40
18704;BMP180;9481;48.796;9.210;2023-01-15T05:03:30;95106.00;;;15.40
18704;BMP180;9481;48.796;9.210;2023-01-15T05:06:01;95117.00;;;15.40
18704;BMP180;9481;48.796;9.210;2023-01-15T05:08:27;95130.00;;;15.40
18704;BMP180;9481;48.796;9.210;2023-01-15T05:10:53;95125.00;;;15.40
18704;BMP180;9481;48.796;9.210;2023-01-15T05:13:19;95124.00;;;15.40
18704;BMP180;9481;48.796;9.210;2023-01-15T05:15:44;95123.00;;;15.40
18704;BMP180;9481;48.796;9.210;2023-01-15T05:18:11;95124.00;;;15.40
18704;BMP180;9481;48.796;9.210;2023-01-15T05:20:40;95119.00;;;15.40
18704;BMP180;9481;48.796;9.210;2023-01-15T05:23:06;95120.00;;;15.40
18704;BMP180;9481;48.796;9.210;2023-01-15T05:25:35;95124.00;;;15.40
18704;BMP180;9481;48.796;9.210;2023-01-15T05:28:01;95131.00;;;15.40
18704;BMP180;9481;48.796;9.210;2023-01-15T05:30:27;95140.00;;;15.40
18704;BMP180;9481;48.796;9.210;2023-01-15T05:32:52;95152.00;;;15.40
18704;BMP180;9481;48.796;9.210;2023-01-15T05:35:18;95163.00;;;15.40
18704;BMP180;9481;48.796;9.210;2023-01-15T05:37:44;95174.00;;;15.40
18704;BMP180;9481;48.796;9.210;2023-01-15T05:40:10;95202.00;;;15.40
18704;BMP180;9481;48.796;9.210;2023-01-15T05:42:36;95210.00;;;15.40
18704;BMP180;9481;48.796;9.210;2023-01-15T05:45:02;95209.00;;;15.30
18704;BMP180;9481;48.796;9.210;2023-01-15T05:47:28;95222.00;;;15.10
18704;BMP180;9481;48.796;9.210;2023-01-15T05:49:54;95208.00;;;15.10
18704;BMP180;9481;48.796;9.210;2023-01-15T05:52:19;95201.00;;;15.00
18704;BMP180;9481;48.796;9.210;2023-01-15T05:54:45;95210.00;;;14.90
18704;BMP180;9481;48.796;9.210;2023-01-15T05:57:12;95219.00;;;14.90
18704;BMP180;9481;48.796;9.210;2023-01-15T05:59:38;95220.00;;;14.80
18704;BMP180;9481;48.796;9.210;2023-01-15T06:02:04;95229.00;;;14.70
18704;BMP180;9481;48.796;9.210;2023-01-15T06:04:30;95230.00;;;14.70
18704;BMP180;9481;48.796;9.210;2023-01-15T06:06:56;95226.00;;;14.60
18704;BMP180;9481;48.796;9.210;2023-01-15T06:09:23;95226.00;;;14.60
18704;BMP180;9481;48.796;9.210;2023-01-15T06:11:50;95240.00;;;14.50
18704;BMP180;9481;48.796;9.210;2023-01-15T06:14:16;95227.00;;;14.50
18704;BMP180;9481;48.796;9.210;2023-01-15T06:16:42;95218.00;;;14.50
18704;BMP180;9481;48.796;9.210;2023-01-15T06:19:09;95231.00;;;14.50
18704;BMP180;9481;48.796;9.210;2023-01-15T06:21:35;95246.00;;;14.50
18704;BMP180;9481;48.796;9.210;2023-01-15T06:24:01;95257.00;;;14.50
18704;BMP180;9481;48.796;9.210;2023-01-15T06:26:28;95242.00;;;14.50
18704;BMP180;9481;48.796;9.210;2023-01-15T06:28:53;95240.00;;;14.40
18704;BMP180;9481;48.796;9.210;2023-01-15T06:31:22;95248.00;;;14.40
18704;BMP180;9481;48.796;9.210;2023-01-15T06:33:48;95263.00;;;14.40
18704;BMP180;9481;48.796;9.210;2023-01-15T06:36:18;95256.00;;;14.30
18704;BMP180;9481;48.796;9.210;2023-01-15T06:38:46;95273.00;;;14.20
18704;BMP180;9481;48.796;9.210;2023-01-15T06:41:23;95272.00;;;14.20
18704;BMP180;9481;48.796;9.210;2023-01-15T06:44:16;95283.00;;;14.20
18704;BMP180;9481;48.796;9.210;2023-01-15T06:47:33;95284.00;;;14.20
18704;BMP180;9481;48.796;9.210;2023-01-15T06:50:00;95293.00;;;14.30
18704;BMP180;9481;48.796;9.210;2023-01-15T06:52:27;95303.00;;;14.30
18704;BMP180;9481;48.796;9.210;2023-01-15T06:54:54;95290.00;;;14.40
18704;BMP180;9481;48.796;9.210;2023-01-15T06:57:20;95302.00;;;14.40
18704;BMP180;9481;48.796;9.210;2023-01-15T06:59:47;95293.00;;;14.40
18704;BMP180;9481;48.796;9.210;2023-01-15T07:02:13;95305.00;;;14.30
18704;BMP180;9481;48.796;9.210;2023-01-15T07:04:39;95308.00;;;14.30
18704;BMP180;9481;48.796;9.210;2023-01-15T07:07:05;95335.00;;;14.20
18704;BMP180;9481;48.796;9.210;2023-01-15T07:09:30;95346.00;;;14.10
18704;BMP180;9481;48.796;9.210;2023-01-15T07:11:57;95346.00;;;14.10
18704;BMP180;9481;48.796;9.210;2023-01-15T07:14:25;95357.00;;;14.00
18704;BMP180;9481;48.796;9.210;2023-01-15T07:16:52;95369.00;;;14.00
18704;BMP180;9481;48.796;9.210;2023-01-15T07:19:19;95363.00;;;13.90
18704;BMP180;9481;48.796;9.210;2023-01-15T07:21:45;95368.00;;;13.90
18704;BMP180;9481;48.796;9.210;2023-01-15T07:24:11;95379.00;;;13.90
18704;BMP180;9481;48.796;9.210;2023-01-15T07:26:38;95397.00;;;13.90
18704;BMP180;9481;48.796;9.210;2023-01-15T07:29:04;95386.00;;;13.80
18704;BMP180;9481;48.796;9.210;2023-01-15T07:31:30;95389.00;;;13.80
18704;BMP180;9481;48.796;9.210;2023-01-15T07:33:56;95394.00;;;13.70
18704;BMP180;9481;48.796;9.210;2023-01-15T07:36:22;95397.00;;;13.70
18704;BMP180;9481;48.796;9.210;2023-01-15T07:38:48;95390.00;;;13.60
18704;BMP180;9481;48.796;9.210;2023-01-15T07:41:14;95404.00;;;13.60
18704;BMP180;9481;48.796;9.210;2023-01-15T07:43:58;95413.00;;;13.60
18704;BMP180;9481;48.796;9.210;2023-01-15T07:46:42;95401.00;;;13.60
18704;BMP180;9481;48.796;9.210;2023-01-15T07:49:26;95407.00;;;13.60
18704;BMP180;9481;48.796;9.210;2023-01-15T07:52:19;95414.00;;;13.50
18704;BMP180;9481;48.796;9.210;2023-01-15T07:54:47;95426.00;;;13.60
18704;BMP180;9481;48.796;9.210;2023-01-15T07:57:17;95436.00;;;13.60
18704;BMP180;9481;48.796;9.210;2023-01-15T07:59:43;95442.00;;;13.60
18704;BMP180;9481;48.796;9.210;2023-01-15T08:02:09;95454.00;;;13.60
18704;BMP180;9481;48.796;9.210;2023-01-15T08:04:35;95461.00;;;13.60
18704;BMP180;9481;48.796;9.210;2023-01-15T08:07:02;95461.00;;;13.60
18704;BMP180;9481;48.796;9.210;2023-01-15T08:09:28;95449.00;;;13.60
18704;BMP180;9481;48.796;9.210;2023-01-15T08:11:58;95478.00;;;13.60
18704;BMP180;9481;48.796;9.210;2023-01-15T08:14:44;95479.00;;;13.60
18704;BMP180;9481;48.796;9.210;2023-01-15T08:17:29;95487.00;;;13.60
18704;BMP180;9481;48.796;9.210;2023-01-15T08:19:55;95485.00;;;13.60
18704;BMP180;9481;48.796;9.210;2023-01-15T08:22:20;95497.00;;;13.60
18704;BMP180;9481;48.796;9.210;2023-01-15T08:24:46;95480.00;;;13.70
18704;BMP180;9481;48.796;9.210;2023-01-15T08:27:11;95493.00;;;13.80
18704;BMP180;9481;48.796;9.210;2023-01-15T08:29:39;95477.00;;;14.00
18704;BMP180;9481;48.796;9.210;2023-01-15T08:32:04;95488.00;;;14.20
18704;BMP180;9481;48.796;9.210;2023-01-15T08:34:30;95496.00;;;14.40
18704;BMP180;9481;48.796;9.210;2023-01-15T08:36:56;95508.00;;;14.50
18704;BMP180;9481;48.796;9.210;2023-01-15T08:39:26;95523.00;;;14.60
18704;BMP180;9481;48.796;9.210;2023-01-15T08:41:53;95521.00;;;14.60
18704;BMP180;9481;48.796;9.210;2023-01-15T08:44:18;95537.00;;;14.60
18704;BMP180;9481;48.796;9.210;2023-01-15T08:46:46;95546.00;;;14.50
18704;BMP180;9481;48.796;9.210;2023-01-15T08:49:13;95539.00;;;14.40
18704;BMP180;9481;48.796;9.210;2023-01-15T08:51:39;95561.00;;;14.40
18704;BMP180;9481;48.796;9.210;2023-01-15T08:54:05;95564.00;;;14.40
18704;BMP180;9481;48.796;9.210;2023-01-15T08:56:30;95558.00;;;14.30
18704;BMP180;9481;48.796;9.210;2023-01-15T08:58:56;95572.00;;;14.30
18704;BMP180;9481;48.796;9.210;2023-01-15T09:01:22;95568.00;;;14.20
18704;BMP180;9481;48.796;9.210;2023-01-15T09:03:47;95583.00;;;14.20
18704;BMP180;9481;48.796;9.210;2023-01-15T09:06:13;95586.00;;;14.20
18704;BMP180;9481;48.796;9.210;2023-01-15T09:08:39;95587.00;;;14.20
18704;BMP180;9481;48.796;9.210;2023-01-15T09:11:06;95583.00;;;14.10
18704;BMP180;9481;48.796;9.210;2023-01-15T09:13:35;95586.00;;;14.10
18704;BMP180;9481;48.796;9.210;2023-01-15T09:16:04;95584.00;;;14.00
18704;BMP180;9481;48.796;9.210;2023-01-15T09:18:31;95592.00;;;14.00
18704;BMP180;9481;48.796;9.210;2023-01-15T09:20:57;95586.00;;;14.00
18704;BMP180;9481;48.796;9.210;2023-01-15T09:23:24;95596.00;;;14.00
18704;BMP180;9481;48.796;9.210;2023-01-15T09:25:54;95590.00;;;14.00
18704;BMP180;9481;48.796;9.210;2023-01-15T09:28:21;95585.00;;;14.00
18704;BMP180;9481;48.796;9.210;2023-01-15T09:30:47;95588.00;;;14.00
18704;BMP180;9481;48.796;9.210;2023-01-15T09:33:13;95606.00;;;14.00
18704;BMP180;9481;48.796;9.210;2023-01-15T09:35:39;95610.00;;;13.90
18704;BMP180;9481;48.796;9.210;2023-01-15T09:38:06;95620.00;;;13.90
18704;BMP180;9481;48.796;9.210;2023-01-15T09:40:58;95618.00;;;13.90
18704;BMP180;9481;48.796;9.210;2023-01-15T09:43:54;95624.00;;;13.80
18704;BMP180;9481;48.796;9.210;2023-01-15T09:49:16;95630.00;;;13.90
18704;BMP180;9481;48.796;9.210;2023-01-15T09:51:51;95641.00;;;13.90
18704;BMP180;9481;48.796;9.210;2023-01-15T09:54:58;95637.00;;;13.90
18704;BMP180;9481;48.796;9.210;2023-01-15T09:57:27;95638.00;;;13.90
18704;BMP180;9481;48.796;9.210;2023-01-15T09:59:55;95628.00;;;13.90
18704;BMP180;9481;48.796;9.210;2023-01-15T10:02:41;95630.00;;;13.90
18704;BMP180;9481;48.796;9.210;2023-01-15T10:05:45;95648.00;;;13.80
18704;BMP180;9481;48.796;9.210;2023-01-15T10:08:19;95660.00;;;13.80
18704;BMP180;9481;48.796;9.210;2023-01-15T10:10:50;95667.00;;;13.80
18704;BMP180;9481;48.796;9.210;2023-01-15T10:16:24;95639.00;;;13.70
18704;BMP180;9481;48.796;9.210;2023-01-15T10:18:51;95658.00;;;13.70
18704;BMP180;9481;48.796;9.210;2023-01-15T10:21:42;95669.00;;;13.70
18704;BMP180;9481;48.796;9.210;2023-01-15T10:24:25;95665.00;;;13.80
18704;BMP180;9481;48.796;9.210;2023-01-15T10:26:57;95673.00;;;13.80
18704;BMP180;9481;48.796;9.210;2023-01-15T10:29:59;95688.00;;;13.80
18704;BMP180;9481;48.796;9.210;2023-01-15T10:35:43;95697.00;;;13.90
18704;BMP180;9481;48.796;9.210;2023-01-15T10:38:25;95694.00;;;13.90
18704;BMP180;9481;48.796;9.210;2023-01-15T10:44:39;95681.00;;;14.00
18704;BMP180;9481;48.796;9.210;2023-01-15T10:47:00;95690.00;;;14.00
18704;BMP180;9481;48.796;9.210;2023-01-15T10:49:29;95707.00;;;14.10
18704;BMP180;9481;48.796;9.210;2023-01-15T10:52:32;95687.00;;;14.00
18704;BMP180;9481;48.796;9.210;2023-01-15T10:55:28;95690.00;;;14.00
18704;BMP180;9481;48.796;9.210;2023-01-15T11:00:37;95693.00;;;14.00
18704;BMP180;9481;48.796;9.210;2023-01-15T11:03:14;95699.00;;;14.00
18704;BMP180;9481;48.796;9.210;2023-01-15T11:05:42;95702.00;;;14.00
18704;BMP180;9481;48.796;9.210;2023-01-15T11:08:23;95706.00;;;13.90
18704;BMP180;9481;48.796;9.210;2023-01-15T11:11:08;95726.00;;;13.90
18704;BMP180;9481;48.796;9.210;2023-01-15T11:13:38;95724.00;;;13.80
18704;BMP180;9481;48.796;9.210;2023-01-15T11:16:25;95731.00;;;13.70
18704;BMP180;9481;48.796;9.210;2023-01-15T11:19:09;95733.00;;;13.60
18704;BMP180;9481;48.796;9.210;2023-01-15T11:21:57;95745.00;;;13.50
18704;BMP180;9481;48.796;9.210;2023-01-15T11:24:22;95748.00;;;13.40
18704;BMP180;9481;48.796;9.210;2023-01-15T11:26:50;95747.00;;;13.40
18704;BMP180;9481;48.796;9.210;2023-01-15T11:29:34;95765.00;;;13.20
18704;BMP180;9481;48.796;9.210;2023-01-15T11:32:24;95745.00;;;13.10
18704;BMP180;9481;48.796;9.210;2023-01-15T11:34:53;95765.00;;;13.00
18704;BMP180;9481;48.796;9.210;2023-01-15T11:37:19;95764.00;;;13.00
18704;BMP180;9481;48.796;9.210;2023-01-15T11:39:58;95784.00;;;12.80
18704;BMP180;9481;48.796;9.210;2023-01-15T11:42:30;95778.00;;;12.70
18704;BMP180;9481;48.796;9.210;2023-01-15T11:45:17;95780.00;;;12.70
18704;BMP180;9481;48.796;9.210;2023-01-15T11:48:15;95793.00;;;12.60
18704;BMP180;9481;48.796;9.210;2023-01-15T11:51:12;95775.00;;;12.50
18704;BMP180;9481;48.796;9.210;2023-01-15T11:53:52;95782.00;;;12.40
18704;BMP180;9481;48.796;9.210;2023-01-15T11:56:25;95779.00;;;12.40
18704;BMP180;9481;48.796;9.210;2023-01-15T11:58:56;95779.00;;;12.40
18704;BMP180;9481;48.796;9.210;2023-01-15T12:01:25;95782.00;;;12.40
18704;BMP180;9481;48.796;9.210;2023-01-15T12:03:54;95779.00;;;12.40
18704;BMP180;9481;48.796;9.210;2023-01-15T12:06:21;95776.00;;;12.40
18704;BMP180;9481;48.796;9.210;2023-01-15T12:09:00;95781.00;;;12.30
18704;BMP180;9481;48.796;9.210;2023-01-15T12:11:53;95788.00;;;12.30
18704;BMP180;9481;48.796;9.210;2023-01-15T12:15:11;95794.00;;;12.20
18704;BMP180;9481;48.796;9.210;2023-01-15T12:30:03;95804.00;;;12.00
18704;BMP180;9481;48.796;9.210;2023-01-15T12:32:42;95784.00;;;12.10
18704;BMP180;9481;48.796;9.210;2023-01-15T12:35:42;95802.00;;;12.00
18704;BMP180;9481;48.796;9.210;2023-01-15T12:38:21;95785.00;;;12.00
18704;BMP180;9481;48.796;9.210;2023-01-15T12:40:58;95777.00;;;12.10
18704;BMP180;9481;48.796;9.210;2023-01-15T12:43:26;95783.00;;;12.10
18704;BMP180;9481;48.796;9.210;2023-01-15T12:46:23;95784.00;;;12.10
18704;BMP180;9481;48.796;9.210;2023-01-15T12:51:50;95777.00;;;12.10
18704;BMP180;9481;48.796;9.210;2023-01-15T12:54:27;95789.00;;;12.10
18704;BMP180;9481;48.796;9.210;2023-01-15T12:59:53;95787.00;;;12.00
18704;BMP180;9481;48.796;9.210;2023-01-15T13:05:30;95794.00;;;11.90
18704;BMP180;9481;48.796;9.210;2023-01-15T13:08:46;95815.00;;;11.90
18704;BMP180;9481;48.796;9.210;2023-01-15T13:11:15;95796.00;;;11.90
18704;BMP180;9481;48.796;9.210;2023-01-15T13:13:41;95788.00;;;11.90
18704;BMP180;9481;48.796;9.210;2023-01-15T13:19:05;95805.00;;;11.90
18704;BMP180;9481;48.796;9.210;2023-01-15T13:21:35;95813.00;;;11.90
18704;BMP180;9481;48.796;9.210;2023-01-15T13:27:12;95791.00;;;11.80
18704;BMP180;9481;48.796;9.210;2023-01-15T13:30:08;95812.00;;;11.80
18704;BMP180;9481;48.796;9.210;2023-01-15T13:32:49;95796.00;;;11.70
18704;BMP180;9481;48.796;9.210;2023-01-15T13:35:31;95805.00;;;11.70
18704;BMP180;9481;48.796;9.210;2023-01-15T13:38:02;95807.00;;;11.70
18704;BMP180;9481;48.796;9.210;2023-01-15T13:40:37;95811.00;;;11.70
18704;BMP180;9481;48.796;9.210;2023-01-15T13:43:07;95822.00;;;11.70
18704;BMP180;9481;48.796;9.210;2023-01-15T13:45:47;95802.00;;;11.60
18704;BMP180;9481;48.796;9.210;2023-01-15T13:48:28;95822.00;;;11.60
18704;BMP180;9481;48.796;9.210;2023-01-15T13:50:58;95835.00;;;11.60
18704;BMP180;9481;48.796;9.210;2023-01-15T13:54:08;95825.00;;;11.60
18704;BMP180;9481;48.796;9.210;2023-01-15T13:56:32;95826.00;;;11.60
18704;BMP180;9481;48.796;9.210;2023-01-15T13:59:31;95834.00;;;11.60
18704;BMP180;9481;48.796;9.210;2023-01-15T14:01:59;95831.00;;;11.60
18704;BMP180;9481;48.796;9.210;2023-01-15T14:04:35;95834.00;;;11.70
18704;BMP180;9481;48.796;9.210;2023-01-15T14:07:02;95833.00;;;11.70
18704;BMP180;9481;48.796;9.210;2023-01-15T14:09:29;95837.00;;;11.70
18704;BMP180;9481;48.796;9.210;2023-01-15T14:12:45;95831.00;;;11.70
18704;BMP180;9481;48.796;9.210;2023-01-15T14:15:48;95834.00;;;11.80
18704;BMP180;9481;48.796;9.210;2023-01-15T14:18:26;95837.00;;;11.80
18704;BMP180;9481;48.796;9.210;2023-01-15T14:29:50;95846.00;;;11.90
18704;BMP180;9481;48.796;9.210;2023-01-15T14:32:42;95860.00;;;11.90
18704;BMP180;9481;48.796;9.210;2023-01-15T14:35:19;95854.00;;;12.00
18704;BMP180;9481;48.796;9.210;2023-01-15T14:40:28;95855.00;;;12.00
18704;BMP180;9481;48.796;9.210;2023-01-15T14:42:58;95860.00;;;12.10
18704;BMP180;9481;48.796;9.210;2023-01-15T14:45:46;95863.00;;;12.10
18704;BMP180;9481;48.796;9.210;2023-01-15T14:48:36;95850.00;;;12.10
18704;BMP180;9481;48.796;9.210;2023-01-15T14:54:08;95853.00;;;12.10
18704;BMP180;9481;48.796;9.210;2023-01-15T14:56:43;95866.00;;;12.10
18704;BMP180;9481;48.796;9.210;2023-01-15T14:59:24;95857.00;;;12.10
18704;BMP180;9481;48.796;9.210;2023-01-15T15:01:54;95855.00;;;12.10
18704;BMP180;9481;48.796;9.210;2023-01-15T15:04:44;95854.00;;;12.10
18704;BMP180;9481;48.796;9.210;2023-01-15T15:07:38;95860.00;;;12.00
18704;BMP180;9481;48.796;9.210;2023-01-15T15:10:31;95861.00;;;12.00
18704;BMP180;9481;48.796;9.210;2023-01-15T15:16:18;95854.00;;;12.00
18704;BMP180;9481;48.796;9.210;2023-01-15T15:19:26;95865.00;;;11.90
18704;BMP180;9481;48.796;9.210;2023-01-15T15:21:56;95876.00;;;11.90
18704;BMP180;9481;48.796;9.210;2023-01-15T15:24:34;95863.00;;;11.90
18704;BMP180;9481;48.796;9.210;2023-01-15T15:27:20;95869.00;;;11.80
18704;BMP180;9481;48.796;9.210;2023-01-15T15:29:46;95872.00;;;11.80
18704;BMP180;9481;48.796;9.210;2023-01-15T15:32:23;95883.00;;;11.80
18704;BMP180;9481;48.796;9.210;2023-01-15T15:34:51;95882.00;;;11.80
18704;BMP180;9481;48.796;9.210;2023-01-15T15:37:21;95897.00;;;11.70
18704;BMP180;9481;48.796;9.210;2023-01-15T15:42:29;95881.00;;;11.70
18704;BMP180;9481;48.796;9.210;2023-01-15T15:45:22;95894.00;;;11.70
18704;BMP180;9481;48.796;9.210;2023-01-15T15:51:48;95881.00;;;11.60
18704;BMP180;9481;48.796;9.210;2023-01-15T15:54:26;95880.00;;;11.60
18704;BMP180;9481;48.796;9.210;2023-01-15T15:56:59;95884.00;;;11.60
18704;BMP180;9481;48.796;9.210;2023-01-15T15:59:29;95886.00;;;11.60
18704;BMP180;9481;48.796;9.210;2023-01-15T16:01:59;95882.00;;;11.60
18704;BMP180;9481;48.796;9.210;2023-01-15T16:04:32;95873.00;;;11.60
18704;BMP180;9481;48.796;9.210;2023-01-15T16:06:57;95875.00;;;11.60
18704;BMP180;9481;48.796;9.210;2023-01-15T16:09:24;95871.00;;;11.60
18704;BMP180;9481;48.796;9.210;2023-01-15T16:11:51;95866.00;;;11.60
18704;BMP180;9481;48.796;9.210;2023-01-15T16:14:20;95860.00;;;11.60
18704;BMP180;9481;48.796;9.210;2023-01-15T16:16:48;95854.00;;;11.60
18704;BMP180;9481;48.796;9.210;2023-01-15T16:19:21;95857.00;;;11.60